Time;durP1;ratioP1;P1;durP2;ratioP2;P2;SDS_P1;SDS_P2;PMS_P1;PMS_P2;Temp;Humidity;BMP_temperature;BMP_pressure;BME280_temperature;BME280_humidity;BME280_pressure;Samples;Min_cycle;Max_cycle;Signal;HPM_P1;HPM_P2
2021/12/28 00:01:59;;;;;;;11.50;6.60;;;8.40;99.90;;;;;;4137936;28;20093;-73
2021/12/28 00:04:00;;;;;;;10.45;6.75;;;8.40;99.90;;;;;;4153498;28;20483;-72
2021/12/28 00:06:00;;;;;;;9.48;6.38;;;8.40;99.90;;;;;;4158783;28;20034;-73
2021/12/28 00:08:01;;;;;;;10.07;6.22;;;8.40;99.90;;;;;;4158897;28;20371;-73
2021/12/28 00:10:04;;;;;;;10.55;6.45;;;8.40;99.90;;;;;;4146296;28;20411;-73
2021/12/28 00:12:05;;;;;;;10.43;6.70;;;8.40;99.90;;;;;;4155835;28;20029;-73
2021/12/28 00:14:07;;;;;;;8.73;6.18;;;8.30;99.90;;;;;;4161461;28;20105;-72
2021/12/28 00:18:08;;;;;;;9.65;6.57;;;8.30;99.90;;;;;;4158577;28;20398;-73
2021/12/28 00:20:09;;;;;;;9.40;6.50;;;8.30;99.90;;;;;;4156316;28;20061;-73
2021/12/28 00:22:10;;;;;;;10.07;6.45;;;8.20;99.90;;;;;;4158933;28;20033;-72
2021/12/28 00:24:10;;;;;;;8.18;5.43;;;8.20;99.90;;;;;;4156445;28;20069;-72
2021/12/28 00:26:13;;;;;;;8.93;5.65;;;8.20;99.90;;;;;;4147586;28;20034;-72
2021/12/28 00:28:14;;;;;;;10.85;6.18;;;8.20;99.90;;;;;;4154801;28;20030;-73
2021/12/28 00:30:15;;;;;;;8.23;5.55;;;8.20;99.90;;;;;;4157793;28;20079;-73
2021/12/28 00:32:16;;;;;;;10.05;5.93;;;8.20;99.90;;;;;;4139971;28;20038;-73
2021/12/28 00:34:17;;;;;;;9.52;6.55;;;8.20;99.90;;;;;;4141012;28;20033;-73
2021/12/28 00:36:17;;;;;;;9.52;6.28;;;8.10;99.90;;;;;;4155664;28;20030;-72
2021/12/28 00:38:22;;;;;;;10.98;6.93;;;8.10;99.90;;;;;;4146116;28;20136;-72
2021/12/28 00:40:23;;;;;;;9.95;6.13;;;8.10;99.90;;;;;;4141933;28;20084;-73
2021/12/28 00:42:24;;;;;;;10.45;6.63;;;8.00;99.90;;;;;;4158407;28;20025;-72
2021/12/28 00:44:24;;;;;;;10.85;6.45;;;8.00;99.90;;;;;;4148897;28;20044;-73
2021/12/28 00:46:25;;;;;;;9.82;6.00;;;8.00;99.90;;;;;;4166487;28;20105;-73
2021/12/28 00:48:26;;;;;;;9.35;5.68;;;8.00;99.90;;;;;;4149698;28;20124;-73
2021/12/28 00:50:27;;;;;;;13.00;6.15;;;8.00;99.90;;;;;;4156642;28;20032;-73
2021/12/28 00:52:28;;;;;;;10.07;6.05;;;8.00;99.90;;;;;;4156609;28;20029;-72
2021/12/28 00:54:29;;;;;;;9.27;6.25;;;8.00;99.90;;;;;;4162043;28;20079;-72
2021/12/28 00:56:29;;;;;;;9.82;6.38;;;8.00;99.90;;;;;;4163268;28;20030;-72
2021/12/28 00:58:31;;;;;;;7.57;5.40;;;7.90;99.90;;;;;;4161103;28;20474;-72
2021/12/28 01:00:35;;;;;;;9.18;6.25;;;8.00;99.90;;;;;;4146626;28;20033;-73
2021/12/28 01:02:36;;;;;;;10.10;5.63;;;8.00;99.90;;;;;;4158194;28;20113;-73
2021/12/28 01:04:36;;;;;;;9.27;5.97;;;8.00;99.90;;;;;;4156410;28;20029;-73
2021/12/28 01:06:37;;;;;;;8.55;5.70;;;7.90;99.90;;;;;;4141868;28;20503;-72
2021/12/28 01:08:38;;;;;;;7.88;5.15;;;8.00;99.90;;;;;;4156596;28;20348;-72
2021/12/28 01:10:49;;;;;;;8.25;5.35;;;7.90;99.90;;;;;;4160120;28;20034;-72
2021/12/28 01:12:52;;;;;;;8.77;5.03;;;7.90;99.90;;;;;;4159095;28;20450;-72
2021/12/28 01:14:53;;;;;;;9.75;5.53;;;7.90;99.90;;;;;;4163077;28;20048;-72
2021/12/28 01:16:54;;;;;;;9.10;5.57;;;7.90;99.90;;;;;;4141144;28;20037;-72
2021/12/28 01:18:54;;;;;;;7.68;5.22;;;7.90;99.90;;;;;;4161408;28;20021;-72
2021/12/28 01:20:55;;;;;;;8.13;5.15;;;8.00;99.90;;;;;;4159292;28;20025;-73
2021/12/28 01:22:56;;;;;;;7.45;5.10;;;8.00;99.90;;;;;;4161210;28;20040;-72
2021/12/28 01:24:57;;;;;;;9.90;6.20;;;7.90;99.90;;;;;;4157055;28;20483;-72
2021/12/28 01:26:58;;;;;;;8.13;5.00;;;7.90;99.90;;;;;;4158626;28;20068;-72
2021/12/28 01:28:58;;;;;;;8.75;5.68;;;7.90;99.90;;;;;;4157950;28;20038;-72
2021/12/28 01:30:59;;;;;;;9.15;5.60;;;7.90;99.90;;;;;;4139278;28;20587;-72
2021/12/28 01:33:01;;;;;;;7.70;5.15;;;7.90;99.90;;;;;;4160613;28;20034;-73
2021/12/28 01:35:04;;;;;;;6.95;4.78;;;7.90;99.90;;;;;;4138301;28;20030;-72
2021/12/28 01:37:05;;;;;;;8.55;5.38;;;7.90;99.90;;;;;;4157937;28;20108;-72
2021/12/28 01:39:07;;;;;;;7.05;4.50;;;7.90;99.90;;;;;;4140638;28;20100;-72
2021/12/28 01:41:10;;;;;;;9.82;4.80;;;7.90;99.90;;;;;;4157367;28;20116;-72
2021/12/28 01:43:14;;;;;;;9.40;5.00;;;7.90;99.90;;;;;;4155732;28;20044;-72
2021/12/28 01:45:14;;;;;;;10.18;5.35;;;7.90;99.90;;;;;;4160423;28;20116;-72
2021/12/28 01:47:16;;;;;;;7.70;4.88;;;7.90;99.90;;;;;;4157343;28;20026;-72
2021/12/28 01:49:17;;;;;;;7.23;4.33;;;7.90;99.90;;;;;;4155756;28;20041;-72
2021/12/28 01:51:20;;;;;;;10.75;4.85;;;7.90;99.90;;;;;;4158814;28;20025;-72
2021/12/28 01:53:22;;;;;;;8.73;4.97;;;7.90;99.90;;;;;;4147548;28;20038;-72
2021/12/28 01:55:23;;;;;;;8.20;4.85;;;7.90;99.90;;;;;;4156166;28;20022;-72
2021/12/28 01:57:23;;;;;;;9.60;5.13;;;7.90;99.90;;;;;;4164415;28;20389;-72
2021/12/28 01:59:24;;;;;;;8.40;4.30;;;7.90;99.90;;;;;;4138124;28;20037;-72
2021/12/28 02:01:26;;;;;;;8.70;4.45;;;7.90;99.90;;;;;;4157233;28;20095;-73
2021/12/28 02:03:29;;;;;;;6.60;4.10;;;8.00;99.90;;;;;;4138078;28;20049;-73
2021/12/28 02:05:30;;;;;;;8.02;4.80;;;8.00;99.90;;;;;;4139680;28;20038;-73
2021/12/28 02:07:30;;;;;;;5.88;4.10;;;8.00;99.90;;;;;;4160301;28;20099;-73
2021/12/28 02:09:31;;;;;;;6.07;4.05;;;8.00;99.90;;;;;;4157164;28;20044;-73
2021/12/28 02:11:31;;;;;;;7.80;4.47;;;8.00;99.90;;;;;;4147911;28;20034;-73
2021/12/28 02:13:32;;;;;;;8.73;4.32;;;8.00;99.90;;;;;;4164932;28;20041;-73
2021/12/28 02:15:34;;;;;;;7.95;4.10;;;8.00;99.90;;;;;;4154795;28;20104;-73
2021/12/28 02:17:35;;;;;;;6.78;3.92;;;8.00;99.90;;;;;;4138934;28;20099;-73
2021/12/28 02:19:36;;;;;;;7.85;4.47;;;8.00;99.90;;;;;;4159969;28;20065;-73
2021/12/28 02:21:37;;;;;;;10.27;4.28;;;8.10;99.90;;;;;;4154464;28;20026;-73
2021/12/28 02:23:38;;;;;;;6.15;4.00;;;8.10;99.90;;;;;;4153293;28;20079;-73
2021/12/28 02:25:39;;;;;;;9.18;4.35;;;8.10;99.90;;;;;;4156882;28;20429;-73
2021/12/28 02:27:40;;;;;;;12.27;4.38;;;8.10;99.90;;;;;;4160450;28;20029;-73
2021/12/28 02:29:41;;;;;;;10.25;4.22;;;8.10;99.90;;;;;;4158012;28;20419;-73
2021/12/28 02:31:42;;;;;;;7.53;4.10;;;8.10;99.90;;;;;;4154097;28;20053;-73
2021/12/28 02:33:43;;;;;;;12.15;4.25;;;8.10;99.90;;;;;;4139032;28;20028;-73
2021/12/28 02:35:43;;;;;;;8.23;4.05;;;8.10;99.90;;;;;;4160023;28;20029;-73
2021/12/28 02:37:45;;;;;;;9.38;4.05;;;8.10;99.90;;;;;;4161990;28;20083;-73
2021/12/28 02:39:46;;;;;;;9.63;4.03;;;8.10;99.90;;;;;;4158198;28;20025;-73
2021/12/28 02:41:46;;;;;;;13.18;3.83;;;8.10;99.90;;;;;;4155365;28;20109;-73
2021/12/28 02:43:48;;;;;;;14.43;4.32;;;8.10;99.90;;;;;;4161312;28;20032;-73
2021/12/28 02:45:53;;;;;;;13.15;4.28;;;8.10;99.90;;;;;;4154973;28;20033;-73
2021/12/28 02:47:54;;;;;;;6.57;3.25;;;8.10;99.90;;;;;;4126023;28;20110;-73
2021/12/28 02:49:55;;;;;;;10.15;3.70;;;8.10;99.90;;;;;;4155862;28;20065;-73
2021/12/28 02:51:55;;;;;;;6.95;3.65;;;8.10;99.90;;;;;;4137938;28;20033;-73
2021/12/28 02:53:56;;;;;;;11.65;4.60;;;8.20;99.90;;;;;;4160933;28;20026;-73
2021/12/28 02:55:57;;;;;;;9.05;3.58;;;8.20;99.90;;;;;;4136191;28;20030;-73
2021/12/28 02:58:01;;;;;;;9.60;3.70;;;8.20;99.90;;;;;;4127530;28;20153;-73
2021/12/28 03:00:05;;;;;;;10.07;3.90;;;8.20;99.90;;;;;;4154214;28;20014;-73
2021/12/28 03:02:05;;;;;;;9.68;3.53;;;8.20;99.90;;;;;;4156314;28;20471;-73
2021/12/28 03:04:08;;;;;;;8.98;4.13;;;8.20;99.90;;;;;;4147180;28;20033;-73
2021/12/28 03:06:11;;;;;;;7.60;3.20;;;8.20;99.90;;;;;;4154393;28;20033;-73
2021/12/28 03:08:13;;;;;;;6.82;3.35;;;8.30;99.90;;;;;;4159562;28;20099;-73
2021/12/28 03:10:14;;;;;;;10.60;3.92;;;8.30;99.90;;;;;;4159618;28;20029;-73
2021/12/28 03:12:14;;;;;;;9.38;3.63;;;8.30;99.90;;;;;;4138899;28;20034;-73
2021/12/28 03:14:15;;;;;;;10.90;3.78;;;8.30;99.90;;;;;;4140150;28;20037;-73
2021/12/28 03:16:18;;;;;;;12.48;3.67;;;8.30;99.90;;;;;;4153236;28;20475;-73
2021/12/28 03:18:19;;;;;;;14.65;3.60;;;8.30;99.90;;;;;;4158936;28;20026;-73
2021/12/28 03:20:20;;;;;;;9.38;2.85;;;8.30;99.90;;;;;;4165320;28;20032;-74
2021/12/28 03:22:20;;;;;;;9.52;3.22;;;8.40;99.90;;;;;;4164511;28;20022;-73
2021/12/28 03:24:21;;;;;;;9.25;2.97;;;8.40;99.90;;;;;;4165720;28;20033;-73
2021/12/28 03:26:22;;;;;;;6.97;3.00;;;8.40;99.90;;;;;;4165004;28;20112;-73
2021/12/28 03:28:26;;;;;;;7.93;2.97;;;8.50;99.90;;;;;;4165723;28;20037;-73
2021/12/28 03:30:27;;;;;;;12.80;3.90;;;8.50;99.90;;;;;;4165302;28;20032;-73
2021/12/28 03:32:27;;;;;;;7.20;2.90;;;8.50;99.90;;;;;;4148453;28;20065;-73
2021/12/28 03:34:28;;;;;;;9.52;3.75;;;8.50;99.90;;;;;;4148492;28;20025;-73
2021/12/28 03:36:29;;;;;;;8.20;3.25;;;8.50;99.90;;;;;;4164918;28;20087;-74
2021/12/28 03:38:31;;;;;;;11.82;4.03;;;8.60;99.90;;;;;;4165181;28;20136;-74
2021/12/28 03:40:33;;;;;;;10.02;3.58;;;8.60;99.90;;;;;;4160207;28;20029;-73
2021/12/28 03:42:33;;;;;;;12.95;3.78;;;8.60;99.90;;;;;;4129918;28;20076;-73
2021/12/28 03:44:35;;;;;;;9.85;3.17;;;8.60;99.90;;;;;;4154151;28;20112;-73
2021/12/28 03:46:36;;;;;;;12.32;3.65;;;8.60;99.90;;;;;;4158275;28;20441;-74
2021/12/28 03:48:38;;;;;;;10.70;3.17;;;8.60;99.90;;;;;;4146614;28;20087;-73
2021/12/28 03:50:38;;;;;;;15.20;3.97;;;8.70;99.90;;;;;;4162159;28;20026;-74
2021/12/28 03:52:39;;;;;;;13.02;3.53;;;8.70;99.90;;;;;;4141405;28;20403;-74
2021/12/28 03:54:40;;;;;;;14.55;3.90;;;8.70;99.90;;;;;;4147062;28;20084;-74
2021/12/28 03:56:40;;;;;;;14.68;3.55;;;8.70;99.90;;;;;;4164607;28;20028;-73
2021/12/28 03:58:44;;;;;;;11.35;3.38;;;8.70;99.90;;;;;;4159574;28;20478;-74
2021/12/28 04:00:47;;;;;;;14.90;4.00;;;8.70;99.90;;;;;;4156292;28;20554;-73
2021/12/28 04:02:48;;;;;;;12.30;3.47;;;8.70;99.90;;;;;;4158658;28;20029;-73
2021/12/28 04:04:48;;;;;;;14.32;3.25;;;8.70;99.90;;;;;;4147235;28;20044;-73
2021/12/28 04:06:49;;;;;;;10.60;3.17;;;8.70;99.90;;;;;;4154144;28;20037;-73
2021/12/28 04:08:51;;;;;;;14.88;3.45;;;8.70;99.90;;;;;;4158805;28;20033;-73
2021/12/28 04:10:55;;;;;;;12.02;3.35;;;8.70;99.90;;;;;;4156712;28;20029;-73
2021/12/28 04:12:55;;;;;;;10.95;3.15;;;8.70;99.90;;;;;;4158582;28;20490;-73
2021/12/28 04:14:57;;;;;;;12.18;3.42;;;8.70;99.90;;;;;;4152506;28;20021;-73
2021/12/28 04:16:58;;;;;;;11.15;3.10;;;8.70;99.90;;;;;;4142931;28;20048;-74
2021/12/28 04:19:00;;;;;;;14.15;3.47;;;8.70;99.90;;;;;;4161619;28;20029;-73
2021/12/28 04:21:00;;;;;;;12.60;3.55;;;8.80;99.90;;;;;;4160868;28;20466;-73
2021/12/28 04:23:01;;;;;;;12.38;3.15;;;8.80;99.90;;;;;;4150532;28;20037;-73
2021/12/28 04:25:03;;;;;;;15.05;3.42;;;8.80;99.90;;;;;;4159006;28;20092;-73
2021/12/28 04:27:04;;;;;;;14.95;3.83;;;8.70;99.90;;;;;;4162696;28;20068;-73
2021/12/28 04:29:04;;;;;;;15.65;3.92;;;8.70;99.90;;;;;;4159221;28;20025;-73
2021/12/28 04:31:05;;;;;;;15.50;3.72;;;8.70;99.90;;;;;;4157764;28;20406;-73
2021/12/28 04:33:06;;;;;;;13.35;3.67;;;8.70;99.90;;;;;;4156544;28;20053;-73
2021/12/28 04:35:08;;;;;;;16.92;2.90;;;8.80;99.90;;;;;;4156707;28;20029;-74
2021/12/28 04:37:08;;;;;;;13.98;3.30;;;8.80;99.90;;;;;;4161799;28;20026;-73
2021/12/28 04:39:09;;;;;;;15.35;3.65;;;8.80;99.90;;;;;;4160436;28;20084;-73
2021/12/28 04:41:11;;;;;;;17.05;3.83;;;8.80;99.90;;;;;;4163147;28;20471;-73
2021/12/28 04:43:13;;;;;;;18.30;3.75;;;8.80;99.90;;;;;;4155990;28;20033;-73
2021/12/28 04:45:15;;;;;;;19.20;4.30;;;8.80;99.90;;;;;;4155400;28;20029;-73
2021/12/28 04:47:16;;;;;;;14.70;3.92;;;8.80;99.90;;;;;;4161945;28;20026;-73
2021/12/28 04:49:17;;;;;;;12.77;3.38;;;8.80;99.90;;;;;;4139416;28;20045;-73
2021/12/28 04:51:18;;;;;;;12.90;3.90;;;8.80;99.90;;;;;;4156152;28;20060;-73
2021/12/28 04:53:19;;;;;;;16.58;3.72;;;8.80;99.90;;;;;;4161774;28;20029;-73
2021/12/28 04:55:20;;;;;;;20.42;4.78;;;8.70;99.90;;;;;;4160747;28;20026;-73
2021/12/28 04:57:21;;;;;;;16.90;3.92;;;8.80;99.90;;;;;;4142239;28;20022;-73
2021/12/28 04:59:21;;;;;;;11.48;3.88;;;8.70;99.90;;;;;;4163225;28;20029;-73
2021/12/28 05:01:22;;;;;;;15.98;3.40;;;8.80;99.90;;;;;;4131870;28;20419;-73
2021/12/28 05:03:23;;;;;;;16.13;3.72;;;8.80;99.90;;;;;;4155259;28;20030;-74
2021/12/28 05:05:23;;;;;;;16.15;4.05;;;8.80;99.90;;;;;;4143254;28;20025;-73
2021/12/28 05:07:24;;;;;;;10.70;3.13;;;8.80;99.90;;;;;;4159392;28;20030;-73
2021/12/28 05:09:25;;;;;;;14.18;3.17;;;8.80;99.90;;;;;;4137158;28;20161;-73
2021/12/28 05:11:25;;;;;;;16.13;4.22;;;8.80;99.90;;;;;;4158841;28;20040;-73
2021/12/28 05:13:26;;;;;;;19.30;3.83;;;8.80;99.90;;;;;;4132415;28;20054;-73
2021/12/28 05:15:27;;;;;;;15.18;3.95;;;8.80;99.90;;;;;;4146776;28;20022;-73
2021/12/28 05:17:28;;;;;;;13.40;3.55;;;8.80;99.90;;;;;;4163242;28;20029;-73
2021/12/28 05:19:28;;;;;;;11.02;3.60;;;8.90;99.90;;;;;;4159824;28;20030;-74
2021/12/28 05:21:29;;;;;;;10.02;2.78;;;8.90;99.90;;;;;;4161894;28;20397;-73
2021/12/28 05:23:30;;;;;;;14.65;3.30;;;8.90;99.90;;;;;;4157935;28;20025;-73
2021/12/28 05:25:32;;;;;;;19.92;4.35;;;8.90;99.90;;;;;;4162570;28;20043;-73
2021/12/28 05:27:32;;;;;;;19.00;3.90;;;8.90;99.90;;;;;;4139718;28;20030;-73
2021/12/28 05:29:33;;;;;;;24.92;4.65;;;8.90;99.90;;;;;;4144257;28;20081;-73
2021/12/28 05:31:34;;;;;;;18.63;3.42;;;8.90;99.90;;;;;;4143103;28;20053;-73
2021/12/28 05:33:35;;;;;;;15.52;3.53;;;8.90;99.90;;;;;;4145908;28;20109;-73
2021/12/28 05:35:35;;;;;;;16.15;3.50;;;9.00;99.90;;;;;;4159276;28;20109;-73
2021/12/28 05:37:38;;;;;;;19.25;4.22;;;9.00;99.90;;;;;;4162174;28;20036;-74
2021/12/28 05:39:39;;;;;;;14.38;3.25;;;9.00;99.90;;;;;;4159198;28;20380;-73
2021/12/28 05:41:39;;;;;;;16.30;3.55;;;9.10;99.90;;;;;;4142746;28;20081;-74
2021/12/28 05:43:40;;;;;;;12.25;3.42;;;9.00;99.90;;;;;;4162063;28;20036;-73
2021/12/28 05:45:43;;;;;;;22.58;4.65;;;9.10;99.90;;;;;;4159718;28;20083;-73
2021/12/28 05:47:44;;;;;;;20.60;4.00;;;9.10;99.90;;;;;;4146125;28;20463;-73
2021/12/28 05:49:45;;;;;;;14.98;3.35;;;9.20;99.90;;;;;;4137453;28;20081;-73
2021/12/28 05:51:46;;;;;;;10.23;3.20;;;9.20;99.90;;;;;;4147265;28;20033;-73
2021/12/28 05:53:47;;;;;;;16.02;3.00;;;9.20;99.90;;;;;;4162471;28;20076;-73
2021/12/28 05:55:48;;;;;;;16.33;3.20;;;9.20;99.90;;;;;;4157589;28;20029;-73
2021/12/28 05:57:48;;;;;;;15.38;3.15;;;9.20;99.90;;;;;;4162009;28;20069;-73
2021/12/28 05:59:49;;;;;;;17.02;3.65;;;9.20;99.90;;;;;;4165932;28;20048;-73
2021/12/28 06:01:50;;;;;;;14.43;3.70;;;9.20;99.90;;;;;;4166324;28;20478;-73
2021/12/28 06:03:50;;;;;;;15.25;4.07;;;9.30;99.90;;;;;;4148311;28;20105;-73
2021/12/28 06:05:51;;;;;;;15.95;4.05;;;9.20;99.90;;;;;;4139675;28;20036;-73
2021/12/28 06:07:52;;;;;;;13.68;3.97;;;9.20;99.90;;;;;;4154789;28;20034;-73
2021/12/28 06:09:56;;;;;;;19.45;4.05;;;9.30;99.90;;;;;;4160424;28;20026;-73
2021/12/28 06:11:57;;;;;;;15.30;3.97;;;9.30;99.90;;;;;;4137495;28;20034;-73
2021/12/28 06:13:58;;;;;;;11.15;3.53;;;9.20;99.90;;;;;;4122860;28;20023;-73
2021/12/28 06:15:59;;;;;;;19.25;4.68;;;9.30;99.90;;;;;;4154142;28;20029;-73
2021/12/28 06:17:59;;;;;;;19.30;5.68;;;9.30;99.90;;;;;;4155465;28;20487;-73
2021/12/28 06:20:00;;;;;;;15.13;5.55;;;9.30;99.90;;;;;;4154696;28;20040;-73
2021/12/28 06:22:00;;;;;;;18.13;5.70;;;9.30;99.90;;;;;;4129160;28;20565;-73
2021/12/28 06:24:03;;;;;;;22.85;6.97;;;9.30;99.90;;;;;;4162177;28;20030;-73
2021/12/28 06:26:04;;;;;;;16.50;6.90;;;9.30;99.90;;;;;;4162389;28;20014;-73
2021/12/28 06:28:04;;;;;;;19.40;6.68;;;9.30;99.90;;;;;;4142615;28;20032;-73
2021/12/28 06:30:06;;;;;;;20.45;6.03;;;9.30;99.90;;;;;;4159187;28;20030;-73
2021/12/28 06:32:07;;;;;;;12.48;4.72;;;9.30;99.90;;;;;;4130381;28;20022;-74
2021/12/28 06:34:07;;;;;;;10.88;4.57;;;9.30;99.90;;;;;;4158963;28;20026;-73
2021/12/28 06:36:08;;;;;;;18.88;5.18;;;9.30;99.90;;;;;;4165166;28;20021;-73
2021/12/28 06:38:08;;;;;;;16.17;5.30;;;9.30;99.90;;;;;;4132655;28;20130;-73
2021/12/28 06:40:11;;;;;;;13.48;4.65;;;9.30;99.90;;;;;;4148083;28;20477;-73
2021/12/28 06:42:11;;;;;;;12.48;4.43;;;9.30;99.90;;;;;;4139579;28;20509;-73
2021/12/28 06:44:12;;;;;;;17.27;5.18;;;9.30;99.90;;;;;;4148401;28;20030;-73
2021/12/28 06:46:13;;;;;;;16.25;4.82;;;9.30;99.90;;;;;;4140844;28;20552;-73
2021/12/28 06:48:13;;;;;;;15.18;4.15;;;9.30;99.90;;;;;;4142596;28;20044;-73
2021/12/28 06:50:14;;;;;;;12.48;4.35;;;9.40;99.90;;;;;;4130498;28;20487;-73
2021/12/28 06:52:15;;;;;;;19.85;4.70;;;9.30;99.90;;;;;;4146637;28;20033;-74
2021/12/28 06:54:16;;;;;;;12.40;4.03;;;9.40;99.90;;;;;;4146310;28;20029;-74
2021/12/28 06:56:17;;;;;;;17.73;4.38;;;9.40;99.90;;;;;;4146631;28;20026;-73
2021/12/28 06:58:17;;;;;;;12.93;3.92;;;9.30;99.90;;;;;;4140832;28;20022;-74
2021/12/28 07:00:19;;;;;;;10.52;3.55;;;9.30;99.90;;;;;;4144461;28;20037;-73
2021/12/28 07:02:20;;;;;;;13.52;3.38;;;9.40;99.90;;;;;;4146648;28;20017;-73
2021/12/28 07:04:20;;;;;;;14.27;3.45;;;9.40;99.90;;;;;;4146341;28;20577;-72
2021/12/28 07:06:23;;;;;;;16.50;4.22;;;9.30;99.90;;;;;;4152820;28;20033;-73
2021/12/28 07:08:24;;;;;;;11.93;3.38;;;9.40;99.90;;;;;;4153029;28;20438;-73
2021/12/28 07:10:24;;;;;;;13.30;4.05;;;9.40;99.90;;;;;;4142072;28;20115;-73
2021/12/28 07:12:25;;;;;;;11.57;3.92;;;9.40;99.90;;;;;;4144082;28;20517;-72
2021/12/28 07:14:28;;;;;;;16.13;4.10;;;9.40;99.90;;;;;;4128548;28;20018;-73
2021/12/28 07:16:28;;;;;;;;;;;9.40;99.90;;;;;;4150704;28;20096;-73
2021/12/28 07:18:29;;;;;;;16.25;4.32;;;9.40;99.90;;;;;;4142618;28;19928;-73
2021/12/28 07:20:30;;;;;;;11.68;3.80;;;9.40;99.90;;;;;;4145695;28;20037;-73
2021/12/28 07:22:30;;;;;;;8.07;3.53;;;9.40;99.90;;;;;;4146045;28;20030;-73
2021/12/28 07:24:31;;;;;;;12.80;3.95;;;9.40;99.90;;;;;;4150605;28;20048;-73
2021/12/28 07:26:32;;;;;;;16.65;4.45;;;9.40;99.90;;;;;;4148862;28;20167;-73
2021/12/28 07:28:33;;;;;;;13.88;3.60;;;9.40;99.90;;;;;;4146814;28;20483;-72
2021/12/28 07:30:34;;;;;;;13.65;4.57;;;9.40;99.90;;;;;;4142981;28;20168;-73
2021/12/28 07:32:36;;;;;;;11.07;3.53;;;9.40;99.90;;;;;;4141257;28;20105;-72
2021/12/28 07:34:37;;;;;;;16.98;4.50;;;9.40;99.90;;;;;;4144443;28;20494;-73
2021/12/28 07:36:37;;;;;;;12.85;4.13;;;9.40;99.90;;;;;;4140921;28;20026;-73
2021/12/28 07:38:38;;;;;;;14.10;3.85;;;9.40;99.90;;;;;;4155723;28;20733;-72
2021/12/28 07:40:39;;;;;;;12.48;3.90;;;9.40;99.90;;;;;;4164762;28;20082;-72
2021/12/28 07:42:40;;;;;;;10.98;3.85;;;9.40;99.90;;;;;;4161425;28;20030;-73
2021/12/28 07:44:41;;;;;;;19.15;4.40;;;9.40;99.90;;;;;;4138855;28;20037;-72
2021/12/28 07:46:42;;;;;;;11.95;3.90;;;9.30;99.90;;;;;;4166653;28;20150;-72
2021/12/28 07:48:43;;;;;;;8.55;3.42;;;9.30;99.90;;;;;;4160933;28;20034;-72
2021/12/28 07:50:43;;;;;;;10.65;3.50;;;9.30;99.90;;;;;;4143395;28;20032;-72
2021/12/28 07:52:45;;;;;;;11.55;3.95;;;9.30;99.90;;;;;;4144108;28;20037;-72
2021/12/28 07:54:46;;;;;;;12.03;3.90;;;9.30;99.90;;;;;;4146206;28;20045;-72
2021/12/28 07:56:46;;;;;;;12.27;3.58;;;9.30;99.90;;;;;;4160402;28;20026;-72
2021/12/28 07:58:47;;;;;;;8.32;3.08;;;9.30;99.90;;;;;;4160030;28;20018;-72
2021/12/28 08:00:47;;;;;;;9.38;3.65;;;9.40;99.90;;;;;;4166373;28;20072;-72
2021/12/28 08:02:48;;;;;;;8.10;3.15;;;9.40;99.90;;;;;;4160208;28;20100;-73
2021/12/28 08:04:49;;;;;;;8.65;3.70;;;9.40;99.90;;;;;;4184607;23;20050;-71
2021/12/28 08:06:50;;;;;;;10.73;3.88;;;9.40;99.90;;;;;;4144665;28;20526;-69
2021/12/28 08:08:50;;;;;;;15.57;4.40;;;9.40;99.90;;;;;;4138774;28;20154;-68
2021/12/28 08:10:51;;;;;;;9.95;3.38;;;9.40;99.90;;;;;;4148053;28;20034;-68
2021/12/28 08:12:54;;;;;;;11.80;3.55;;;9.40;99.90;;;;;;4154345;28;20075;-68
2021/12/28 08:14:55;;;;;;;9.43;3.75;;;9.30;99.90;;;;;;4151540;28;20473;-69
2021/12/28 08:16:56;;;;;;;6.97;3.05;;;9.40;99.90;;;;;;4147935;28;20477;-71
2021/12/28 08:18:57;;;;;;;14.52;3.92;;;9.40;99.90;;;;;;4149087;28;20033;-69
2021/12/28 08:20:57;;;;;;;12.70;3.83;;;9.40;99.90;;;;;;4149370;28;20022;-70
2021/12/28 08:22:58;;;;;;;12.20;4.20;;;9.40;99.90;;;;;;4151855;28;20048;-69
2021/12/28 08:24:59;;;;;;;12.52;3.78;;;9.40;99.90;;;;;;4151074;28;20073;-69
2021/12/28 08:27:01;;;;;;;15.02;4.40;;;9.40;99.90;;;;;;4116710;28;20683;-69
2021/12/28 08:29:01;;;;;;;16.63;4.05;;;9.40;99.90;;;;;;4148140;28;20034;-69
2021/12/28 08:31:02;;;;;;;8.32;3.33;;;9.40;99.90;;;;;;4150513;28;20065;-69
2021/12/28 08:33:04;;;;;;;7.30;3.00;;;9.40;99.90;;;;;;4147339;28;20482;-69
2021/12/28 08:35:06;;;;;;;11.65;3.72;;;9.40;99.90;;;;;;4148663;28;20065;-68
2021/12/28 08:37:07;;;;;;;13.23;3.90;;;9.40;99.90;;;;;;4148968;28;20105;-68
2021/12/28 08:39:08;;;;;;;9.57;3.20;;;9.40;99.90;;;;;;4145361;28;20033;-68
2021/12/28 08:41:09;;;;;;;13.98;3.95;;;9.40;99.90;;;;;;4158670;28;20068;-69
2021/12/28 08:43:11;;;;;;;8.93;2.92;;;9.40;99.90;;;;;;4152516;28;20033;-70
2021/12/28 08:45:12;;;;;;;9.13;3.42;;;9.50;99.90;;;;;;4151262;28;20030;-69
2021/12/28 08:47:13;;;;;;;11.43;4.00;;;9.50;99.90;;;;;;4149371;28;20413;-68
2021/12/28 08:49:14;;;;;;;7.13;3.10;;;9.40;99.90;;;;;;4147476;28;20026;-68
2021/12/28 08:51:15;;;;;;;13.55;3.75;;;9.50;99.90;;;;;;4148019;28;20104;-69
2021/12/28 08:53:16;;;;;;;10.50;3.67;;;9.50;99.90;;;;;;4150422;28;20029;-68
2021/12/28 08:55:19;;;;;;;8.10;3.17;;;9.50;99.90;;;;;;4149469;28;20533;-69
2021/12/28 08:57:20;;;;;;;11.35;3.83;;;9.50;99.90;;;;;;4148376;28;20045;-68
2021/12/28 08:59:21;;;;;;;10.73;3.67;;;9.50;99.90;;;;;;4148416;28;20396;-68
2021/12/28 09:01:22;;;;;;;8.48;3.22;;;9.50;99.90;;;;;;4147649;28;20113;-68
2021/12/28 09:03:23;;;;;;;13.10;4.05;;;9.50;99.90;;;;;;4150328;28;20065;-70
2021/12/28 09:05:24;;;;;;;9.15;2.85;;;9.50;99.90;;;;;;4133914;28;20046;-68
2021/12/28 09:07:25;;;;;;;9.98;3.78;;;9.50;99.90;;;;;;4155367;28;20034;-67
2021/12/28 09:09:26;;;;;;;10.88;3.22;;;9.50;99.90;;;;;;4151917;28;20034;-67
2021/12/28 09:11:26;;;;;;;12.55;3.72;;;9.50;99.90;;;;;;4151854;28;20025;-69
2021/12/28 09:13:27;;;;;;;11.60;4.22;;;9.50;99.90;;;;;;4148910;28;20370;-69
2021/12/28 09:15:28;;;;;;;15.50;3.88;;;9.50;99.90;;;;;;4148602;28;20058;-69
2021/12/28 09:17:28;;;;;;;7.40;2.95;;;9.50;99.90;;;;;;4133671;28;20057;-71
2021/12/28 09:19:30;;;;;;;9.57;2.88;;;9.50;99.90;;;;;;4132681;28;20020;-67
2021/12/28 09:21:31;;;;;;;10.23;3.10;;;9.60;99.90;;;;;;4145824;28;20444;-69
2021/12/28 09:23:32;;;;;;;10.70;2.63;;;9.60;99.90;;;;;;4151186;28;20034;-68
2021/12/28 09:25:33;;;;;;;11.85;3.53;;;9.60;99.90;;;;;;4153433;28;20608;-69
2021/12/28 09:27:34;;;;;;;6.82;3.60;;;9.60;99.90;;;;;;4157310;28;20041;-70
2021/12/28 09:29:35;;;;;;;12.85;3.17;;;9.60;99.90;;;;;;4153797;28;20030;-69
2021/12/28 09:31:36;;;;;;;9.15;3.13;;;9.60;99.90;;;;;;4124291;28;20025;-69
2021/12/28 09:33:37;;;;;;;7.95;3.08;;;9.60;99.90;;;;;;4141761;28;20037;-69
2021/12/28 09:35:38;;;;;;;10.30;3.47;;;9.60;99.90;;;;;;4136065;28;20018;-68
2021/12/28 09:37:38;;;;;;;7.38;2.85;;;9.60;99.90;;;;;;4145232;28;20038;-68
2021/12/28 09:39:39;;;;;;;7.72;2.50;;;9.60;99.90;;;;;;4145760;28;20120;-68
2021/12/28 09:41:40;;;;;;;7.57;2.58;;;9.60;99.90;;;;;;4140595;28;20032;-68
2021/12/28 09:43:41;;;;;;;6.97;2.60;;;9.60;99.90;;;;;;4149820;28;20030;-68
2021/12/28 09:45:42;;;;;;;5.72;2.50;;;9.70;99.90;;;;;;4141170;28;20392;-69
2021/12/28 09:47:44;;;;;;;6.95;2.20;;;9.70;99.90;;;;;;4135112;28;20032;-69
2021/12/28 09:49:46;;;;;;;8.50;2.45;;;9.70;99.90;;;;;;4139260;28;20054;-69
2021/12/28 09:51:46;;;;;;;8.85;2.90;;;9.70;99.90;;;;;;4150765;28;20022;-69
2021/12/28 09:53:47;;;;;;;11.30;2.90;;;9.70;99.90;;;;;;4138758;28;20113;-69
2021/12/28 09:55:48;;;;;;;6.72;2.55;;;9.70;99.90;;;;;;4150390;28;20031;-70
2021/12/28 09:57:49;;;;;;;5.85;2.30;;;9.70;99.90;;;;;;4149876;28;20389;-70
2021/12/28 09:59:50;;;;;;;10.20;3.28;;;9.70;99.90;;;;;;4135765;28;20030;-67
2021/12/28 10:01:51;;;;;;;12.27;3.17;;;9.70;99.90;;;;;;4150398;28;20030;-67
2021/12/28 10:03:52;;;;;;;8.77;2.75;;;9.80;99.90;;;;;;4145478;28;20121;-68
2021/12/28 10:05:52;;;;;;;6.40;2.50;;;9.70;99.90;;;;;;4144463;28;20058;-67
2021/12/28 10:07:59;;;;;;;6.53;2.70;;;9.70;99.90;;;;;;4145737;28;20042;-68
2021/12/28 10:10:00;;;;;;;4.95;2.33;;;9.70;99.90;;;;;;4147812;28;20416;-68
2021/12/28 10:12:00;;;;;;;10.73;3.00;;;9.70;99.90;;;;;;4149891;28;20034;-67
2021/12/28 10:14:30;;;;;;;7.32;2.30;;;9.70;99.90;;;;;;4150499;28;20032;-67
2021/12/28 10:17:01;;;;;;;4.57;1.98;;;9.70;99.90;;;;;;4134922;28;20400;-67
2021/12/28 10:19:28;;;;;;;4.88;1.85;;;9.70;99.90;;;;;;4145351;28;20094;-67
2021/12/28 10:21:29;;;;;;;5.15;1.80;;;9.70;99.90;;;;;;4133692;28;20034;-69
2021/12/28 10:23:31;;;;;;;5.82;2.00;;;9.70;99.90;;;;;;4146170;28;20053;-67
2021/12/28 10:25:36;;;;;;;6.32;2.03;;;9.80;99.90;;;;;;4150113;28;20030;-68
2021/12/28 10:27:40;;;;;;;5.55;1.85;;;9.80;99.90;;;;;;4156569;28;20033;-67
2021/12/28 10:29:41;;;;;;;4.03;2.10;;;9.80;99.90;;;;;;4153266;28;20026;-67
2021/12/28 10:31:41;;;;;;;6.10;1.83;;;9.80;99.90;;;;;;4147272;28;20026;-67
2021/12/28 10:33:42;;;;;;;4.53;1.77;;;9.80;99.90;;;;;;4142594;28;20029;-68
2021/12/28 10:35:46;;;;;;;3.80;1.85;;;9.80;99.90;;;;;;4151400;28;20021;-67
2021/12/28 10:37:51;;;;;;;2.95;1.70;;;9.80;99.90;;;;;;4148255;28;20054;-67